Time;durP1;ratioP1;P1;durP2;ratioP2;P2;SDS_P1;SDS_P2;PMS_P1;PMS_P2;Temp;Humidity;BMP_temperature;BMP_pressure;BME280_temperature;BME280_humidity;BME280_pressure;Samples;Min_cycle;Max_cycle;Signal;HPM_P1;HPM_P2
2022/12/02 00:00:20;;;;;;;28.47;20.07;;;2.30;99.90;;;;;;4908261;29;20325;-72
2022/12/02 00:02:47;;;;;;;31.47;21.37;;;2.20;99.90;;;;;;4912652;29;20201;-72
2022/12/02 00:05:29;;;;;;;30.27;20.93;;;2.30;99.90;;;;;;4912788;29;20690;-72
2022/12/02 00:07:59;;;;;;;29.60;20.70;;;2.30;99.90;;;;;;4911919;29;20311;-72
2022/12/02 00:10:29;;;;;;;31.57;20.93;;;2.30;99.90;;;;;;4905381;29;20669;-72
2022/12/02 00:13:01;;;;;;;29.77;21.27;;;2.20;99.90;;;;;;4909982;29;20744;-72
2022/12/02 00:15:41;;;;;;;28.80;20.60;;;2.20;99.90;;;;;;4912454;29;20288;-72
2022/12/02 00:18:09;;;;;;;31.50;20.50;;;2.20;99.90;;;;;;4912197;29;20205;-72
2022/12/02 00:20:36;;;;;;;32.67;20.97;;;2.20;99.90;;;;;;4912301;29;20213;-72
2022/12/02 00:23:04;;;;;;;30.13;20.97;;;2.20;99.90;;;;;;4912196;29;20559;-72
2022/12/02 00:25:32;;;;;;;29.63;20.13;;;2.30;99.90;;;;;;4912253;29;20279;-73
2022/12/02 00:28:00;;;;;;;28.57;19.83;;;2.30;99.90;;;;;;4912288;29;20303;-72
2022/12/02 00:30:27;;;;;;;30.00;21.10;;;2.30;99.90;;;;;;4912071;29;20240;-72
2022/12/02 00:32:54;;;;;;;30.23;20.43;;;2.30;99.90;;;;;;4903618;29;20291;-75
2022/12/02 00:35:22;;;;;;;31.67;21.20;;;2.30;99.90;;;;;;4912168;29;20260;-72
2022/12/02 00:37:49;;;;;;;30.90;20.83;;;2.30;99.90;;;;;;4912140;29;20296;-73
2022/12/02 00:40:16;;;;;;;30.93;21.30;;;2.20;99.90;;;;;;4911777;29;20320;-73
2022/12/02 00:42:45;;;;;;;30.50;21.27;;;2.20;99.90;;;;;;4911974;29;20295;-72
2022/12/02 00:47:57;;;;;;;29.27;20.23;;;2.20;99.90;;;;;;4911756;29;20216;-75
2022/12/02 00:50:24;;;;;;;29.40;20.40;;;2.20;99.90;;;;;;4912045;29;20296;-73
2022/12/02 00:52:51;;;;;;;32.13;20.57;;;2.20;99.90;;;;;;4911979;29;20320;-76
2022/12/02 00:55:18;;;;;;;31.53;20.73;;;2.20;99.90;;;;;;4911583;29;20241;-76
2022/12/02 00:57:46;;;;;;;31.47;21.37;;;2.20;99.90;;;;;;4912314;29;20624;-75
2022/12/02 01:00:14;;;;;;;32.33;20.70;;;2.20;99.90;;;;;;4912257;29;20244;-74
2022/12/02 01:02:41;;;;;;;29.40;21.20;;;2.20;99.90;;;;;;4911961;29;20244;-73
2022/12/02 01:05:09;;;;;;;29.63;20.70;;;2.30;99.90;;;;;;4911897;29;20328;-73
2022/12/02 01:07:36;;;;;;;30.73;21.10;;;2.30;99.90;;;;;;4911125;29;20668;-73
2022/12/02 01:10:03;;;;;;;36.40;22.30;;;2.30;99.90;;;;;;4910158;29;20385;-76
2022/12/02 01:12:30;;;;;;;28.90;19.87;;;2.30;99.90;;;;;;4912014;29;20302;-76
2022/12/02 01:14:58;;;;;;;30.53;20.97;;;2.30;99.90;;;;;;4911892;29;20254;-74
2022/12/02 01:17:25;;;;;;;30.73;20.60;;;2.20;99.90;;;;;;4911696;29;20240;-74
2022/12/02 01:19:52;;;;;;;32.53;20.87;;;2.20;99.90;;;;;;4911456;29;20209;-74
2022/12/02 01:22:19;;;;;;;29.27;20.63;;;2.20;99.90;;;;;;4911427;29;20315;-74
2022/12/02 01:24:46;;;;;;;26.63;19.73;;;2.20;99.90;;;;;;4911128;29;20236;-74
2022/12/02 01:27:12;;;;;;;33.20;21.53;;;2.20;99.90;;;;;;4911461;29;20299;-74
2022/12/02 01:29:39;;;;;;;31.50;21.43;;;2.20;99.90;;;;;;4911497;29;20304;-73
2022/12/02 01:32:08;;;;;;;30.77;20.17;;;2.20;99.90;;;;;;4911175;29;21005;-73
2022/12/02 01:34:34;;;;;;;31.03;22.23;;;2.30;99.90;;;;;;4911351;29;20346;-74
2022/12/02 01:37:01;;;;;;;29.43;20.50;;;2.30;99.90;;;;;;4908973;29;20247;-73
2022/12/02 01:39:28;;;;;;;31.03;21.40;;;2.30;99.90;;;;;;4911256;29;20240;-74
2022/12/02 01:41:55;;;;;;;29.50;20.73;;;2.20;99.90;;;;;;4911113;29;20300;-74
2022/12/02 01:44:22;;;;;;;31.47;21.10;;;2.30;99.90;;;;;;4911351;29;20216;-76
2022/12/02 01:46:49;;;;;;;28.83;20.20;;;2.30;99.90;;;;;;4910868;29;20243;-77
2022/12/02 01:49:18;;;;;;;30.57;20.40;;;2.30;99.90;;;;;;4911198;29;20240;-77
2022/12/02 01:51:45;;;;;;;28.63;20.27;;;2.30;99.90;;;;;;4911359;29;20212;-76
2022/12/02 01:54:12;;;;;;;31.70;21.77;;;2.30;99.90;;;;;;4911316;29;20216;-76
2022/12/02 01:56:39;;;;;;;31.07;21.23;;;2.30;99.90;;;;;;4911189;29;20316;-75
2022/12/02 01:59:07;;;;;;;29.07;20.53;;;2.30;99.90;;;;;;4911050;29;20248;-74
2022/12/02 02:01:35;;;;;;;31.83;21.60;;;2.20;99.90;;;;;;4911221;29;20217;-78
2022/12/02 02:04:03;;;;;;;29.13;21.03;;;2.30;99.90;;;;;;4896221;29;20244;-77
2022/12/02 02:06:34;;;;;;;29.03;20.47;;;2.20;99.90;;;;;;4891738;29;20675;-73
2022/12/02 02:09:01;;;;;;;29.60;20.37;;;2.30;99.90;;;;;;4907113;29;20732;-73
2022/12/02 02:11:28;;;;;;;32.97;22.27;;;2.30;99.90;;;;;;4911016;29;20251;-72
2022/12/02 02:13:56;;;;;;;28.57;20.13;;;2.20;99.90;;;;;;4915788;29;20248;-72
2022/12/02 02:16:23;;;;;;;29.53;20.37;;;2.20;99.90;;;;;;4925862;29;20299;-72
2022/12/02 02:18:50;;;;;;;31.73;20.47;;;2.20;99.90;;;;;;4914173;29;20308;-72
2022/12/02 02:21:20;;;;;;;28.83;20.17;;;2.20;99.90;;;;;;4914449;29;21021;-72
2022/12/02 02:23:48;;;;;;;31.73;21.63;;;2.20;99.90;;;;;;4914865;29;20212;-72
2022/12/02 02:26:15;;;;;;;33.30;21.97;;;2.20;99.90;;;;;;4914748;29;20276;-72
2022/12/02 02:28:42;;;;;;;29.17;20.47;;;2.20;99.90;;;;;;4914393;29;20297;-72
2022/12/02 02:31:10;;;;;;;31.10;21.30;;;2.20;99.90;;;;;;4914152;29;20293;-72
2022/12/02 02:33:37;;;;;;;32.90;20.97;;;2.20;99.90;;;;;;4914143;29;20246;-73
2022/12/02 02:36:05;;;;;;;32.33;20.80;;;2.20;99.90;;;;;;4914136;29;20668;-75
2022/12/02 02:38:32;;;;;;;29.63;20.70;;;2.20;99.90;;;;;;4914830;29;20235;-74
2022/12/02 02:41:00;;;;;;;28.93;20.40;;;2.20;99.90;;;;;;4913677;29;20308;-71
2022/12/02 02:43:29;;;;;;;28.73;20.40;;;2.20;99.90;;;;;;4914292;29;20233;-72
2022/12/02 02:45:58;;;;;;;29.13;20.43;;;2.20;99.90;;;;;;4914301;29;20328;-72
2022/12/02 02:48:26;;;;;;;29.70;20.80;;;2.20;99.90;;;;;;4913995;29;20755;-73
2022/12/02 02:50:53;;;;;;;31.40;21.17;;;2.20;99.90;;;;;;4913957;29;20233;-72
2022/12/02 02:53:23;;;;;;;31.20;21.10;;;2.20;99.90;;;;;;4914054;29;20232;-73
2022/12/02 02:55:50;;;;;;;32.20;21.63;;;2.20;99.90;;;;;;4914101;29;20208;-73
2022/12/02 02:58:21;;;;;;;29.87;21.00;;;2.20;99.90;;;;;;4914186;29;20299;-73
2022/12/02 03:00:51;;;;;;;31.30;21.10;;;2.30;99.90;;;;;;4895137;29;20212;-74
2022/12/02 03:03:21;;;;;;;29.70;20.47;;;2.30;99.90;;;;;;4895577;29;20632;-76
2022/12/02 03:05:49;;;;;;;29.33;21.17;;;2.20;99.90;;;;;;4899556;29;20311;-74
2022/12/02 03:08:16;;;;;;;31.73;20.13;;;2.20;99.90;;;;;;4913764;29;20249;-72
2022/12/02 03:10:43;;;;;;;33.10;21.77;;;2.30;99.90;;;;;;4913691;29;20272;-73
2022/12/02 03:13:10;;;;;;;30.13;20.20;;;2.20;99.90;;;;;;4913374;29;20324;-73
2022/12/02 03:15:39;;;;;;;32.53;21.87;;;2.20;99.90;;;;;;4913640;29;20300;-73
2022/12/02 03:18:06;;;;;;;34.23;21.67;;;2.20;99.90;;;;;;4912991;29;20211;-72
2022/12/02 03:20:33;;;;;;;32.27;20.87;;;2.20;99.90;;;;;;4910827;29;20292;-72
2022/12/02 03:23:01;;;;;;;30.40;20.63;;;2.20;99.90;;;;;;4902938;29;20216;-73
2022/12/02 03:25:28;;;;;;;33.40;21.73;;;2.10;99.90;;;;;;4899968;29;20323;-73
2022/12/02 03:27:55;;;;;;;30.57;20.77;;;2.10;99.90;;;;;;4912809;29;20682;-74
2022/12/02 03:30:22;;;;;;;30.23;20.53;;;2.10;99.90;;;;;;4908679;29;20263;-73
2022/12/02 03:32:51;;;;;;;32.47;21.23;;;2.20;99.90;;;;;;4911520;29;20292;-73
2022/12/02 03:35:18;;;;;;;31.37;21.43;;;2.20;99.90;;;;;;4910879;29;20292;-73
2022/12/02 03:37:45;;;;;;;28.53;20.17;;;2.10;99.90;;;;;;4911246;29;20223;-72
2022/12/02 03:40:13;;;;;;;31.40;21.37;;;2.10;99.90;;;;;;4910908;29;20208;-72
2022/12/02 03:42:40;;;;;;;28.57;20.03;;;2.10;99.90;;;;;;4910674;29;20780;-73
2022/12/02 03:45:11;;;;;;;29.23;20.77;;;2.10;99.90;;;;;;4910790;29;20232;-73
2022/12/02 03:47:38;;;;;;;30.27;20.53;;;2.10;99.90;;;;;;4910752;29;20207;-73
2022/12/02 03:50:07;;;;;;;29.93;20.07;;;2.10;99.90;;;;;;4910768;29;21050;-74
2022/12/02 03:52:35;;;;;;;31.80;21.27;;;2.10;99.90;;;;;;4910116;29;20320;-73
2022/12/02 03:55:02;;;;;;;30.43;19.83;;;2.10;99.90;;;;;;4910110;29;20208;-72
2022/12/02 03:57:32;;;;;;;29.90;19.27;;;2.10;99.90;;;;;;4910406;29;20685;-73
2022/12/02 03:59:59;;;;;;;28.90;20.07;;;2.10;99.90;;;;;;4910466;29;20212;-73
2022/12/02 04:02:26;;;;;;;32.13;20.57;;;2.10;99.90;;;;;;4910330;29;20231;-71
2022/12/02 04:04:53;;;;;;;29.80;20.40;;;2.10;99.90;;;;;;4910783;29;20209;-73
2022/12/02 04:07:21;;;;;;;30.50;20.80;;;2.10;99.90;;;;;;4911468;29;20232;-74
2022/12/02 04:09:48;;;;;;;29.57;20.03;;;2.10;99.90;;;;;;4911993;29;20218;-73
2022/12/02 04:12:15;;;;;;;31.50;19.83;;;2.10;99.90;;;;;;4912389;29;20311;-73
2022/12/02 04:14:42;;;;;;;29.67;19.33;;;2.10;99.90;;;;;;4912681;29;20241;-75
2022/12/02 04:17:09;;;;;;;30.33;20.00;;;2.10;99.90;;;;;;4912552;29;20239;-74
2022/12/02 04:19:36;;;;;;;30.13;20.27;;;2.10;99.90;;;;;;4912728;29;20259;-72
2022/12/02 04:22:03;;;;;;;32.07;20.83;;;2.10;99.90;;;;;;4911901;29;20291;-73
2022/12/02 04:24:31;;;;;;;29.80;19.93;;;2.10;99.90;;;;;;4911821;29;20215;-73
2022/12/02 04:26:58;;;;;;;29.27;20.17;;;2.10;99.90;;;;;;4911895;29;20587;-74
2022/12/02 04:29:25;;;;;;;29.00;19.33;;;2.10;99.90;;;;;;4912247;29;20271;-72
2022/12/02 04:31:52;;;;;;;28.13;19.70;;;2.10;99.90;;;;;;4912431;29;20650;-73
2022/12/02 04:34:19;;;;;;;27.40;19.27;;;2.10;99.90;;;;;;4912335;29;20762;-74
2022/12/02 04:36:46;;;;;;;30.53;20.53;;;2.10;99.90;;;;;;4911765;29;20808;-74
2022/12/02 04:39:12;;;;;;;28.20;19.33;;;2.10;99.90;;;;;;4912050;29;20212;-74
2022/12/02 04:41:41;;;;;;;27.53;19.00;;;2.10;99.90;;;;;;4912399;29;20217;-73
2022/12/02 04:44:08;;;;;;;31.17;19.90;;;2.10;99.90;;;;;;4911942;29;20303;-73
2022/12/02 04:46:35;;;;;;;28.33;19.33;;;2.10;99.90;;;;;;4911936;29;20574;-72
2022/12/02 04:49:01;;;;;;;30.20;20.03;;;2.10;99.90;;;;;;4911813;29;20270;-74
2022/12/02 04:51:28;;;;;;;29.93;19.53;;;2.10;99.90;;;;;;4911860;29;20640;-73
2022/12/02 04:53:55;;;;;;;28.00;18.77;;;2.10;99.90;;;;;;4911724;29;20316;-73
2022/12/02 04:56:22;;;;;;;28.77;18.67;;;2.10;99.90;;;;;;4911945;29;20317;-73
2022/12/02 04:58:50;;;;;;;27.90;18.03;;;2.10;99.90;;;;;;4911785;29;20303;-73
2022/12/02 05:01:18;;;;;;;27.47;18.83;;;2.10;99.90;;;;;;4911311;29;20300;-73
2022/12/02 05:03:45;;;;;;;26.37;17.97;;;2.00;99.90;;;;;;4911937;29;20736;-74
2022/12/02 05:06:12;;;;;;;25.33;18.57;;;2.10;99.90;;;;;;4911188;29;20735;-73
2022/12/02 05:08:39;;;;;;;27.33;19.43;;;2.10;99.90;;;;;;4911348;29;20649;-75
2022/12/02 05:11:05;;;;;;;26.27;18.37;;;2.10;99.90;;;;;;4911142;29;20348;-74
2022/12/02 05:13:32;;;;;;;26.17;18.23;;;2.00;99.90;;;;;;4911550;29;20312;-73
2022/12/02 05:16:01;;;;;;;27.40;18.70;;;2.00;99.90;;;;;;4911505;29;20216;-74
2022/12/02 05:18:28;;;;;;;23.77;17.30;;;2.00;99.90;;;;;;4911306;29;20213;-74
2022/12/02 05:20:54;;;;;;;25.50;17.40;;;2.00;99.90;;;;;;4911116;29;20731;-74
2022/12/02 05:23:21;;;;;;;26.57;17.93;;;2.00;99.90;;;;;;4911461;29;20291;-73
2022/12/02 05:25:48;;;;;;;27.57;18.83;;;2.00;99.90;;;;;;4911324;29;20343;-73
2022/12/02 05:28:15;;;;;;;24.53;17.17;;;2.00;99.90;;;;;;4911231;29;20252;-75
2022/12/02 05:30:42;;;;;;;26.67;18.83;;;2.10;99.90;;;;;;4911169;29;20735;-73
2022/12/02 05:33:10;;;;;;;25.00;17.80;;;2.10;99.90;;;;;;4911202;29;20287;-73
2022/12/02 05:35:37;;;;;;;26.33;17.90;;;2.10;99.90;;;;;;4911210;29;20203;-74
2022/12/02 05:38:04;;;;;;;26.93;18.47;;;2.10;99.90;;;;;;4910775;29;20302;-73
2022/12/02 05:40:31;;;;;;;25.23;18.07;;;2.10;99.90;;;;;;4910852;29;20303;-73
2022/12/02 05:43:00;;;;;;;26.50;17.27;;;2.10;99.90;;;;;;4911173;29;20204;-74
2022/12/02 05:45:27;;;;;;;26.37;17.70;;;2.10;99.90;;;;;;4911201;29;20244;-74
2022/12/02 05:47:54;;;;;;;24.67;17.00;;;2.10;99.90;;;;;;4911145;29;20200;-75
2022/12/02 05:50:23;;;;;;;24.23;17.57;;;2.10;99.90;;;;;;4914644;29;20252;-73
2022/12/02 05:52:51;;;;;;;23.57;17.60;;;2.10;99.90;;;;;;4914711;29;20216;-73
2022/12/02 05:55:20;;;;;;;23.47;17.10;;;2.10;99.90;;;;;;4914729;29;20307;-73
2022/12/02 05:57:48;;;;;;;26.57;17.50;;;2.10;99.90;;;;;;4914961;29;20248;-73
2022/12/02 06:00:18;;;;;;;23.10;17.50;;;2.10;99.90;;;;;;4914875;29;20304;-75
2022/12/02 06:02:47;;;;;;;23.47;17.67;;;2.10;99.90;;;;;;4913427;29;20291;-73
2022/12/02 06:05:17;;;;;;;25.37;17.70;;;2.10;99.90;;;;;;4898851;29;20218;-73
2022/12/02 06:07:47;;;;;;;25.43;17.73;;;2.10;99.90;;;;;;4895566;29;20340;-73
2022/12/02 06:10:22;;;;;;;23.70;16.97;;;2.10;99.90;;;;;;4895654;29;20214;-73
2022/12/02 06:12:50;;;;;;;22.27;15.63;;;2.10;99.90;;;;;;4896135;29;20236;-75
2022/12/02 06:15:17;;;;;;;22.77;16.93;;;2.10;99.90;;;;;;4895637;29;20260;-74
2022/12/02 06:17:44;;;;;;;19.93;15.17;;;2.10;99.90;;;;;;4902549;29;20223;-73
2022/12/02 06:20:18;;;;;;;21.30;15.10;;;2.10;99.90;;;;;;4914665;29;20248;-73
2022/12/02 06:22:46;;;;;;;18.90;13.97;;;2.10;99.90;;;;;;4914358;29;20710;-73
2022/12/02 06:25:23;;;;;;;20.00;15.40;;;2.10;99.90;;;;;;4913998;29;20590;-73
2022/12/02 06:27:51;;;;;;;19.77;14.27;;;2.10;99.90;;;;;;4914476;29;20229;-73
2022/12/02 06:30:18;;;;;;;18.93;14.70;;;2.10;99.90;;;;;;4914166;29;20311;-73
2022/12/02 06:32:53;;;;;;;19.03;14.00;;;2.10;99.90;;;;;;4914145;29;20634;-74
2022/12/02 06:35:24;;;;;;;19.80;15.07;;;2.10;99.90;;;;;;4914324;29;20320;-73
2022/12/02 06:37:55;;;;;;;17.40;13.70;;;2.10;99.90;;;;;;4914072;29;20261;-74
2022/12/02 06:40:26;;;;;;;18.27;14.40;;;2.10;99.90;;;;;;4914011;29;20293;-73
2022/12/02 06:42:53;;;;;;;18.63;13.83;;;2.10;99.90;;;;;;4914360;29;20201;-73
2022/12/02 06:45:23;;;;;;;16.93;13.57;;;2.10;99.90;;;;;;4914367;29;20303;-73
2022/12/02 06:48:12;;;;;;;18.43;14.50;;;2.10;99.90;;;;;;4913865;29;20232;-73
2022/12/02 06:50:41;;;;;;;17.07;13.23;;;2.10;99.90;;;;;;4903647;29;20340;-73
2022/12/02 06:53:26;;;;;;;19.00;14.13;;;2.10;99.90;;;;;;4895173;29;20296;-73
2022/12/02 06:55:58;;;;;;;18.17;13.87;;;2.10;99.90;;;;;;4893074;29;20218;-74
2022/12/02 06:58:43;;;;;;;20.23;14.97;;;2.10;99.90;;;;;;4894727;29;20240;-72
2022/12/02 07:01:22;;;;;;;18.17;14.33;;;2.10;99.90;;;;;;4894739;29;20204;-72
2022/12/02 07:04:09;;;;;;;18.70;13.83;;;2.10;99.90;;;;;;4894613;29;21024;-73
2022/12/02 07:06:38;;;;;;;19.37;13.97;;;2.10;99.90;;;;;;4894343;29;20320;-73
2022/12/02 07:09:15;;;;;;;18.93;13.90;;;2.10;99.90;;;;;;4894606;29;20661;-75
2022/12/02 07:11:52;;;;;;;16.93;13.53;;;2.10;99.90;;;;;;4894900;29;20244;-73
2022/12/02 07:14:28;;;;;;;16.10;13.60;;;2.10;99.90;;;;;;4904251;29;20209;-74
2022/12/02 07:16:56;;;;;;;18.87;13.43;;;2.10;99.90;;;;;;4913696;29;20208;-73
2022/12/02 07:19:27;;;;;;;21.23;13.73;;;2.20;99.90;;;;;;4913679;29;20208;-73
2022/12/02 07:21:54;;;;;;;18.50;13.90;;;2.10;99.90;;;;;;4913259;29;20215;-74
2022/12/02 07:24:22;;;;;;;17.37;13.43;;;2.20;99.90;;;;;;4912957;29;20232;-75
2022/12/02 07:26:50;;;;;;;15.97;13.43;;;2.20;99.90;;;;;;4913230;29;20232;-73
2022/12/02 07:29:27;;;;;;;18.50;13.93;;;2.20;99.90;;;;;;4913022;29;20213;-74
2022/12/02 07:31:54;;;;;;;18.03;13.20;;;2.20;99.90;;;;;;4913547;29;20239;-73
2022/12/02 07:34:21;;;;;;;21.50;14.90;;;2.30;99.90;;;;;;4913236;29;20646;-73
2022/12/02 07:36:48;;;;;;;16.20;12.67;;;2.30;99.90;;;;;;4912942;29;20681;-73
2022/12/02 07:39:14;;;;;;;21.07;14.03;;;2.30;99.90;;;;;;4912913;29;20308;-73
2022/12/02 07:41:43;;;;;;;16.40;13.90;;;2.30;99.90;;;;;;4913076;29;20224;-73
2022/12/02 07:44:10;;;;;;;19.23;14.67;;;2.30;99.90;;;;;;4912938;29;20217;-74
2022/12/02 07:46:36;;;;;;;19.23;14.13;;;2.30;99.90;;;;;;4912786;29;20738;-74
2022/12/02 07:49:03;;;;;;;19.30;14.07;;;2.30;99.90;;;;;;4912891;29;20663;-73
2022/12/02 07:51:30;;;;;;;18.90;14.10;;;2.30;99.90;;;;;;4912772;29;20244;-73
2022/12/02 07:53:57;;;;;;;18.47;14.00;;;2.30;99.90;;;;;;4912760;29;20217;-73
2022/12/02 07:56:24;;;;;;;19.37;14.17;;;2.20;99.90;;;;;;4913037;29;20307;-73
2022/12/02 07:58:53;;;;;;;18.30;13.53;;;2.20;99.90;;;;;;4912683;29;20763;-73
2022/12/02 08:01:20;;;;;;;21.03;14.23;;;2.20;99.90;;;;;;4912896;29;20211;-72
2022/12/02 08:03:47;;;;;;;16.67;13.17;;;2.20;99.90;;;;;;4912835;29;20793;-74
2022/12/02 08:06:15;;;;;;;18.17;13.70;;;2.30;99.90;;;;;;4912668;29;20240;-73
2022/12/02 08:08:41;;;;;;;19.43;14.20;;;2.30;99.90;;;;;;4912563;29;20244;-73
2022/12/02 08:11:08;;;;;;;18.57;13.73;;;2.20;99.90;;;;;;4911491;29;20264;-73
2022/12/02 08:13:35;;;;;;;17.53;13.60;;;2.20;99.90;;;;;;4912854;29;20217;-73
2022/12/02 08:16:04;;;;;;;19.30;13.50;;;2.20;99.90;;;;;;4912319;29;20304;-72
2022/12/02 08:18:31;;;;;;;17.90;13.30;;;2.20;99.90;;;;;;4912634;29;20637;-73
2022/12/02 08:21:01;;;;;;;19.97;14.73;;;2.20;99.90;;;;;;4908262;29;20252;-74
2022/12/02 08:23:27;;;;;;;18.37;13.53;;;2.20;99.90;;;;;;4912437;29;20321;-73
2022/12/02 08:25:54;;;;;;;22.00;13.30;;;2.10;99.90;;;;;;4912065;29;20296;-74
2022/12/02 08:28:21;;;;;;;22.17;14.43;;;2.10;99.90;;;;;;4912498;29;20240;-73
2022/12/02 08:30:48;;;;;;;18.77;12.87;;;2.10;99.90;;;;;;4912179;29;20236;-73
2022/12/02 08:33:16;;;;;;;17.87;12.87;;;2.10;99.90;;;;;;4912453;29;20623;-73
2022/12/02 08:35:43;;;;;;;17.53;13.83;;;2.10;99.90;;;;;;4912209;29;20295;-72
2022/12/02 08:38:10;;;;;;;21.40;13.83;;;2.10;99.90;;;;;;4912321;29;20217;-73
2022/12/02 08:40:37;;;;;;;18.60;13.30;;;2.10;99.90;;;;;;4911731;29;20212;-73
2022/12/02 08:43:04;;;;;;;19.77;13.53;;;2.10;99.90;;;;;;4912133;29;20696;-73
2022/12/02 08:45:31;;;;;;;18.43;13.77;;;2.10;99.90;;;;;;4912261;29;20685;-73
2022/12/02 08:47:58;;;;;;;17.57;12.47;;;2.10;99.90;;;;;;4912156;29;20651;-73
2022/12/02 08:50:26;;;;;;;21.60;14.13;;;2.10;99.90;;;;;;4912198;29;20268;-73
2022/12/02 08:52:53;;;;;;;20.57;12.77;;;2.20;99.90;;;;;;4911854;29;20426;-73
2022/12/02 08:55:20;;;;;;;18.07;13.77;;;2.10;99.90;;;;;;4911485;29;20759;-73
2022/12/02 08:57:48;;;;;;;15.17;12.27;;;2.20;99.90;;;;;;4911908;29;20228;-73
2022/12/02 09:00:15;;;;;;;18.60;13.13;;;2.20;99.90;;;;;;4911877;29;20236;-74
2022/12/02 09:02:42;;;;;;;18.73;13.17;;;2.20;99.90;;;;;;4911940;29;20241;-74
2022/12/02 09:05:09;;;;;;;20.83;13.63;;;2.20;99.90;;;;;;4911672;29;20638;-73
2022/12/02 09:07:38;;;;;;;18.83;13.10;;;2.20;99.90;;;;;;4911073;29;20256;-73
2022/12/02 09:10:06;;;;;;;20.67;13.23;;;2.20;99.90;;;;;;4911100;29;20209;-72
2022/12/02 09:12:33;;;;;;;15.90;12.50;;;2.20;99.90;;;;;;4911500;29;20823;-73
2022/12/02 09:15:00;;;;;;;19.07;13.17;;;2.20;99.90;;;;;;4911569;29;20239;-72
2022/12/02 09:17:27;;;;;;;17.63;12.43;;;2.20;99.90;;;;;;4911546;29;20219;-74
2022/12/02 09:19:54;;;;;;;20.30;13.70;;;2.20;99.90;;;;;;4911515;29;20413;-73
2022/12/02 09:22:21;;;;;;;18.57;13.47;;;2.30;99.90;;;;;;4910546;29;20335;-73
2022/12/02 09:24:49;;;;;;;19.10;13.53;;;2.40;99.90;;;;;;4910613;29;20220;-73
2022/12/02 09:27:16;;;;;;;20.43;12.70;;;2.30;99.90;;;;;;4911316;29;20391;-73
2022/12/02 09:29:43;;;;;;;18.00;13.83;;;2.30;99.90;;;;;;4911283;29;20248;-72
2022/12/02 09:32:10;;;;;;;18.73;13.73;;;2.40;99.90;;;;;;4910973;29;20222;-72
2022/12/02 09:34:37;;;;;;;18.93;13.23;;;2.40;99.90;;;;;;4911009;29;20259;-72
2022/12/02 09:37:03;;;;;;;17.40;13.47;;;2.40;99.90;;;;;;4910804;29;20249;-73
2022/12/02 09:39:30;;;;;;;18.30;12.93;;;2.40;99.90;;;;;;4910912;29;20743;-72
2022/12/02 09:41:58;;;;;;;18.37;13.43;;;2.40;99.90;;;;;;4911359;29;20248;-73
2022/12/02 09:44:26;;;;;;;17.23;12.70;;;2.40;99.90;;;;;;4911166;29;20307;-73
2022/12/02 09:46:52;;;;;;;17.80;13.70;;;2.40;99.90;;;;;;4910622;29;20703;-73
2022/12/02 09:49:19;;;;;;;18.93;13.10;;;2.40;99.90;;;;;;4911190;29;20291;-73
2022/12/02 09:51:46;;;;;;;17.10;12.97;;;2.40;99.90;;;;;;4910809;29;20660;-72
2022/12/02 09:54:16;;;;;;;19.33;13.47;;;2.40;99.90;;;;;;4910660;29;20269;-72
2022/12/02 09:56:43;;;;;;;18.93;13.27;;;2.40;99.90;;;;;;4910887;29;20695;-73
2022/12/02 09:59:15;;;;;;;18.60;13.47;;;2.50;99.90;;;;;;4910807;29;20732;-72
2022/12/02 10:01:44;;;;;;;17.03;13.30;;;2.50;99.90;;;;;;4910848;29;20304;-74
2022/12/02 10:04:12;;;;;;;19.33;14.07;;;2.50;99.90;;;;;;4910437;29;20300;-74
2022/12/02 10:06:40;;;;;;;19.00;13.83;;;2.50;99.90;;;;;;4910344;29;20748;-73
2022/12/02 10:09:13;;;;;;;20.40;14.07;;;2.60;99.90;;;;;;4910847;29;20256;-73
2022/12/02 10:11:40;;;;;;;19.57;13.50;;;2.60;99.90;;;;;;4910824;29;20872;-73
2022/12/02 10:14:12;;;;;;;19.27;13.60;;;2.50;99.90;;;;;;4911005;29;20576;-74
2022/12/02 10:16:39;;;;;;;16.87;12.67;;;2.50;99.90;;;;;;4910690;29;20299;-74
2022/12/02 10:19:07;;;;;;;19.00;13.73;;;2.50;99.90;;;;;;4910578;29;20676;-73
2022/12/02 10:21:34;;;;;;;21.23;13.53;;;2.60;99.90;;;;;;4910683;29;20213;-72
2022/12/02 10:24:03;;;;;;;18.47;13.57;;;2.50;99.90;;;;;;4910609;29;20216;-72
2022/12/02 10:26:45;;;;;;;21.13;13.90;;;2.50;99.90;;;;;;4910891;29;20438;-73
2022/12/02 10:29:18;;;;;;;17.70;12.60;;;2.50;99.90;;;;;;4910678;29;20224;-72
2022/12/02 10:31:56;;;;;;;18.63;12.93;;;2.50;99.90;;;;;;4910658;29;20542;-72
2022/12/02 10:34:24;;;;;;;17.43;13.03;;;2.50;99.90;;;;;;4911276;29;20236;-72
2022/12/02 10:36:52;;;;;;;19.33;13.97;;;2.50;99.90;;;;;;4913778;29;20219;-72
2022/12/02 10:39:28;;;;;;;20.67;13.37;;;2.50;99.90;;;;;;4914394;29;20213;-72
2022/12/02 10:42:22;;;;;;;21.30;12.60;;;2.50;99.90;;;;;;4914346;29;20200;-72
2022/12/02 10:45:11;;;;;;;20.17;13.33;;;2.50;99.90;;;;;;4880166;29;20216;-72
2022/12/02 10:47:38;;;;;;;20.60;12.47;;;2.50;99.90;;;;;;4913754;29;20773;-75
2022/12/02 10:50:15;;;;;;;18.53;13.30;;;2.40;99.90;;;;;;4907549;29;20310;-72
2022/12/02 10:52:46;;;;;;;18.43;12.73;;;2.40;99.90;;;;;;4894893;29;20196;-73
2022/12/02 10:55:14;;;;;;;19.93;13.77;;;2.40;99.90;;;;;;4894882;29;20305;-72
2022/12/02 10:57:43;;;;;;;21.20;13.73;;;2.40;99.90;;;;;;4895077;29;20558;-72
2022/12/02 11:00:16;;;;;;;20.77;13.33;;;2.40;99.90;;;;;;4910641;29;20608;-73
2022/12/02 11:02:46;;;;;;;22.50;13.73;;;2.40;99.90;;;;;;4913732;29;20295;-73
2022/12/02 11:05:16;;;;;;;20.67;14.10;;;2.40;99.90;;;;;;4913718;29;20216;-72
2022/12/02 11:07:52;;;;;;;18.83;13.50;;;2.40;99.90;;;;;;4913414;29;20340;-72
2022/12/02 11:10:21;;;;;;;23.43;15.03;;;2.40;99.90;;;;;;4913374;29;20626;-73
2022/12/02 11:13:04;;;;;;;23.00;15.33;;;2.40;99.90;;;;;;4913336;29;20697;-73
2022/12/02 11:15:39;;;;;;;25.87;15.73;;;2.40;99.90;;;;;;4913588;29;20288;-72
2022/12/02 11:18:07;;;;;;;26.13;15.43;;;2.40;99.90;;;;;;4913490;29;20201;-72
2022/12/02 11:20:37;;;;;;;25.73;15.20;;;2.40;99.90;;;;;;4913087;29;20303;-73
2022/12/02 11:23:22;;;;;;;23.13;14.67;;;2.40;99.90;;;;;;4912997;29;20302;-72
2022/12/02 11:26:05;;;;;;;24.17;14.73;;;2.40;99.90;;;;;;4912893;29;20244;-73
2022/12/02 11:28:38;;;;;;;24.93;16.07;;;2.40;99.90;;;;;;4913473;29;20339;-74
2022/12/02 11:31:21;;;;;;;23.53;15.27;;;2.30;99.90;;;;;;4913195;29;20287;-73
2022/12/02 11:34:23;;;;;;;26.27;15.87;;;2.40;99.90;;;;;;4913263;29;20734;-72
2022/12/02 11:37:42;;;;;;;25.70;15.60;;;2.40;99.90;;;;;;4913063;29;20648;-72
2022/12/02 11:40:58;;;;;;;26.97;16.27;;;2.40;99.90;;;;;;4912386;29;20643;-74
2022/12/02 11:43:54;;;;;;;23.77;15.07;;;2.40;99.90;;;;;;4912947;29;20240;-72
2022/12/02 11:46:23;;;;;;;23.47;15.37;;;2.40;99.90;;;;;;4911733;29;20219;-73
2022/12/02 11:48:53;;;;;;;25.13;16.07;;;2.40;99.90;;;;;;4912836;29;20328;-73
2022/12/02 11:51:39;;;;;;;26.60;16.43;;;2.40;99.90;;;;;;4896717;29;20282;-73
2022/12/02 11:54:13;;;;;;;26.27;16.10;;;2.50;99.90;;;;;;4893939;29;20224;-72
2022/12/02 11:56:42;;;;;;;26.53;17.87;;;2.50;99.90;;;;;;4911743;29;20308;-73
2022/12/02 11:59:19;;;;;;;26.80;17.37;;;2.50;99.90;;;;;;4912849;29;20312;-72
2022/12/02 12:01:46;;;;;;;26.77;17.00;;;2.50;99.90;;;;;;4912946;29;20284;-72
2022/12/02 12:04:24;;;;;;;30.83;18.23;;;2.50;99.90;;;;;;4912508;29;20300;-72
2022/12/02 12:06:55;;;;;;;27.63;17.70;;;2.50;99.90;;;;;;4911895;29;20869;-72
2022/12/02 12:09:24;;;;;;;23.83;16.53;;;2.50;99.90;;;;;;4912464;29;20231;-72
2022/12/02 12:12:20;;;;;;;29.00;17.60;;;2.50;99.90;;;;;;4912764;29;20304;-73
2022/12/02 12:14:56;;;;;;;28.30;17.43;;;2.50;99.90;;;;;;4872457;29;20749;-74
2022/12/02 12:17:45;;;;;;;27.50;17.17;;;2.50;99.90;;;;;;4905498;29;20218;-74
2022/12/02 12:20:44;;;;;;;28.10;17.67;;;2.40;99.90;;;;;;4912010;29;20907;-73
2022/12/02 12:23:32;;;;;;;25.57;16.87;;;2.40;99.90;;;;;;4912385;29;20217;-74
2022/12/02 12:26:00;;;;;;;29.17;17.67;;;2.40;99.90;;;;;;4912095;29;20285;-72
2022/12/02 12:28:29;;;;;;;26.20;16.90;;;2.40;99.90;;;;;;4912341;29;20236;-72
2022/12/02 12:30:56;;;;;;;30.07;18.00;;;2.40;99.90;;;;;;4912048;29;20851;-72
2022/12/02 12:33:23;;;;;;;30.73;18.53;;;2.40;99.90;;;;;;4911981;29;20320;-73
2022/12/02 12:35:53;;;;;;;27.30;17.40;;;2.40;99.90;;;;;;4912159;29;20236;-72
2022/12/02 12:38:20;;;;;;;28.03;18.23;;;2.40;99.90;;;;;;4912364;29;20244;-73
2022/12/02 12:40:47;;;;;;;30.33;18.10;;;2.40;99.90;;;;;;4912270;29;20320;-73
2022/12/02 12:43:15;;;;;;;27.60;17.63;;;2.40;99.90;;;;;;4912471;29;20240;-72
2022/12/02 12:45:42;;;;;;;29.83;17.77;;;2.40;99.90;;;;;;4912059;29;20252;-72
2022/12/02 12:48:09;;;;;;;28.80;18.03;;;2.40;99.90;;;;;;4911779;29;20691;-72
2022/12/02 12:50:36;;;;;;;29.30;18.37;;;2.40;99.90;;;;;;4912405;29;20240;-73